Aviation Digital Data Service (ADDS)

Output produced by METARs form (1624 UTC 28 July 2016)
found at http://aviationweather.gov/adds/metars/
 
KDFW 281503Z 2815/2918 20010KT P6SM VCSH SCT050 BKN150 
     FM281900 17010KT P6SM VCTS SCT050CB BKN150 
     FM290000 18009KT P6SM SCT060 BKN120